Time;durP1;ratioP1;P1;durP2;ratioP2;P2;SDS_P1;SDS_P2;PMS_P1;PMS_P2;Temp;Humidity;BMP_temperature;BMP_pressure;BME280_temperature;BME280_humidity;BME280_pressure;Samples;Min_cycle;Max_cycle;Signal;HPM_P1;HPM_P2
2021/12/11 00:05:53;;;;;;;67.27;24.05;;;;;;;-0.37;100.00;97989.00;4107900;86;28519;-82
2021/12/11 00:12:00;;;;;;;75.28;27.05;;;;;;;-0.33;100.00;97987.13;4055618;87;28549;-82
2021/12/11 00:18:06;;;;;;;60.70;24.07;;;;;;;-0.49;100.00;97999.22;4063132;88;28543;-82
2021/12/11 00:24:19;;;;;;;70.80;25.90;;;;;;;-0.48;100.00;97999.53;4070376;87;28458;-82
2021/12/11 00:30:26;;;;;;;67.87;26.10;;;;;;;-0.54;100.00;98004.25;4072037;87;28514;-81
2021/12/11 00:36:34;;;;;;;65.12;23.80;;;;;;;-0.59;100.00;98013.52;4066147;87;28460;-82
2021/12/11 00:42:37;;;;;;;62.55;23.15;;;;;;;-0.46;100.00;98020.00;4068614;87;28538;-82
2021/12/11 00:48:39;;;;;;;59.70;23.35;;;;;;;-0.57;100.00;98010.22;4049923;88;28456;-82
2021/12/11 00:54:42;;;;;;;67.37;24.32;;;;;;;-0.38;100.00;98039.67;4071024;87;28529;-84
2021/12/11 01:01:10;;;;;;;62.38;23.75;;;;;;;-0.44;100.00;98058.39;4051317;88;28568;-84
2021/12/11 01:07:20;;;;;;;64.12;24.55;;;;;;;-0.33;100.00;98066.86;4073686;87;28588;-83
2021/12/11 01:13:25;;;;;;;67.50;23.12;;;;;;;-0.26;100.00;98093.34;4074771;87;28495;-83
2021/12/11 01:19:28;;;;;;;61.35;22.82;;;;;;;-0.27;100.00;98099.64;4074843;87;28503;-83
2021/12/11 01:25:29;;;;;;;61.48;22.58;;;;;;;-0.29;100.00;98097.20;4050414;88;28504;-82
2021/12/11 01:31:32;;;;;;;56.13;22.73;;;;;;;-0.29;100.00;98109.09;4104175;86;28519;-80
2021/12/11 01:37:33;;;;;;;64.80;24.40;;;;;;;-0.19;100.00;98110.11;4088585;87;28524;-80
2021/12/11 01:43:37;;;;;;;66.10;23.25;;;;;;;-0.24;100.00;98109.86;4095173;85;28481;-83
2021/12/11 01:49:44;;;;;;;72.03;24.10;;;;;;;-0.18;100.00;98115.70;4089542;87;28542;-82
2021/12/11 01:55:59;;;;;;;61.45;22.98;;;;;;;-0.16;100.00;98127.73;3998694;88;28508;-83
2021/12/11 02:02:06;;;;;;;59.33;22.27;;;;;;;-0.13;100.00;98121.27;4011866;88;28533;-81
2021/12/11 02:08:13;;;;;;;66.97;24.18;;;;;;;-0.11;100.00;98128.51;4027830;87;28484;-82
2021/12/11 02:14:21;;;;;;;58.40;22.32;;;;;;;-0.18;100.00;98138.16;3998650;87;28535;-82
2021/12/11 02:20:28;;;;;;;48.53;17.20;;;;;;;-0.24;100.00;98129.67;4030114;88;28498;-82
2021/12/11 02:26:33;;;;;;;59.53;22.55;;;;;;;-0.12;100.00;98146.69;4028196;88;28515;-83
2021/12/11 02:32:40;;;;;;;55.70;21.70;;;;;;;-0.08;100.00;98150.59;4028371;87;28546;-84
2021/12/11 02:39:03;;;;;;;60.55;22.10;;;;;;;-0.12;100.00;98162.55;4055866;87;28516;-83
2021/12/11 02:45:25;;;;;;;60.30;22.73;;;;;;;-0.13;100.00;98171.97;3957485;89;28456;-84
2021/12/11 02:51:38;;;;;;;59.10;21.95;;;;;;;-0.16;100.00;98181.07;3992948;87;28556;-83
2021/12/11 02:57:45;;;;;;;61.35;22.55;;;;;;;0.08;100.00;98186.57;3996885;89;28472;-82
2021/12/11 03:03:52;;;;;;;63.52;22.62;;;;;;;-0.06;100.00;98198.79;4013299;87;28534;-82
2021/12/11 03:09:55;;;;;;;59.18;21.42;;;;;;;-0.07;100.00;98203.77;3982605;89;28527;-83
2021/12/11 03:15:58;;;;;;;61.20;22.22;;;;;;;-0.01;100.00;98203.04;4049468;87;28483;-82
2021/12/11 03:22:03;;;;;;;65.40;22.98;;;;;;;-0.04;100.00;98199.45;4056440;88;28555;-82
2021/12/11 03:28:08;;;;;;;56.85;21.55;;;;;;;-0.09;100.00;98197.84;4094755;86;28509;-83
2021/12/11 03:34:18;;;;;;;60.83;21.93;;;;;;;-0.04;100.00;98199.94;4117663;86;28520;-81
2021/12/11 03:40:20;;;;;;;61.92;22.62;;;;;;;-0.02;100.00;98200.08;4039902;88;28467;-82
2021/12/11 03:46:23;;;;;;;65.00;22.90;;;;;;;-0.02;100.00;98205.37;3988529;89;28569;-82
2021/12/11 03:52:25;;;;;;;69.60;24.15;;;;;;;-0.08;100.00;98212.69;3988494;89;28526;-82
2021/12/11 03:58:27;;;;;;;68.15;24.05;;;;;;;-0.13;100.00;98219.53;4046385;87;28511;-82
2021/12/11 04:04:34;;;;;;;82.97;28.60;;;;;;;-0.04;100.00;98226.37;4133014;86;28532;-81
2021/12/11 04:10:36;;;;;;;77.95;26.65;;;;;;;-0.12;100.00;98230.41;4070671;86;28507;-83
2021/12/11 04:16:38;;;;;;;67.78;25.02;;;;;;;-0.09;100.00;98230.88;4113918;86;28499;-83
2021/12/11 04:22:42;;;;;;;72.50;25.82;;;;;;;-0.11;100.00;98228.92;4067887;88;28509;-82
2021/12/11 04:28:46;;;;;;;66.95;24.07;;;;;;;-0.06;100.00;98245.55;4067672;88;28495;-83
2021/12/11 04:34:49;;;;;;;71.20;24.95;;;;;;;-0.01;100.00;98247.14;4005949;88;28486;-84
2021/12/11 04:40:55;;;;;;;69.50;23.47;;;;;;;-0.08;100.00;98266.87;4066721;88;28531;-84
2021/12/11 04:46:55;;;;;;;72.20;26.45;;;;;;;0.04;100.00;98276.50;4064153;86;28491;-84
2021/12/11 04:52:58;;;;;;;65.40;24.45;;;;;;;-0.01;100.00;98271.76;4068067;88;28509;-83
2021/12/11 04:59:31;;;;;;;69.80;25.62;;;;;;;-0.03;100.00;98288.78;4131366;86;28539;-83
2021/12/11 05:11:39;;;;;;;64.17;24.65;;;;;;;0.01;100.00;98304.62;4001610;89;28468;-85
2021/12/11 05:17:38;;;;;;;63.45;23.12;;;;;;;0.03;100.00;98318.47;4001566;89;28473;-82
2021/12/11 05:23:40;;;;;;;67.53;24.82;;;;;;;-0.02;100.00;98330.07;4001861;89;28463;-83
2021/12/11 05:29:41;;;;;;;69.40;25.62;;;;;;;0.00;100.00;98341.30;4056737;88;28480;-83
2021/12/11 05:35:44;;;;;;;71.70;26.23;;;;;;;-0.02;100.00;98337.52;4053951;86;28547;-82
2021/12/11 05:41:47;;;;;;;67.65;24.25;;;;;;;-0.04;100.00;98343.97;4034114;88;28500;-82
2021/12/11 05:47:50;;;;;;;68.52;25.40;;;;;;;-0.04;100.00;98365.11;4022654;88;28445;-84
2021/12/11 05:53:57;;;;;;;75.55;27.73;;;;;;;0.12;100.00;98367.62;4037199;88;28497;-85
2021/12/11 05:59:59;;;;;;;82.30;26.93;;;;;;;0.19;100.00;98372.17;4032970;87;28484;-81
2021/12/11 06:06:00;;;;;;;69.95;24.50;;;;;;;0.09;100.00;98379.05;4086644;86;28471;-87
2021/12/11 06:12:07;;;;;;;72.25;26.65;;;;;;;-0.03;100.00;98380.80;4097285;86;28464;-86
2021/12/11 06:18:14;;;;;;;74.65;26.68;;;;;;;-0.06;100.00;98397.52;4106638;86;28525;-82
2021/12/11 06:24:12;;;;;;;73.20;25.95;;;;;;;-0.06;100.00;98401.48;4127236;86;28502;-82
2021/12/11 06:30:18;;;;;;;71.10;25.77;;;;;;;-0.05;100.00;98421.13;4118384;85;28516;-82
2021/12/11 06:36:24;;;;;;;70.47;25.23;;;;;;;0.02;100.00;98427.02;4071371;86;28486;-82
2021/12/11 06:42:26;;;;;;;67.12;24.43;;;;;;;0.01;100.00;98447.35;4065930;87;28518;-82
2021/12/11 06:48:28;;;;;;;67.22;24.63;;;;;;;0.00;100.00;98449.67;4063821;86;28436;-83
2021/12/11 06:54:29;;;;;;;65.70;24.77;;;;;;;-0.02;100.00;98463.05;4123891;86;28545;-82
2021/12/11 07:00:34;;;;;;;70.10;23.83;;;;;;;-0.07;100.00;98452.69;4122906;86;28504;-83
2021/12/11 07:06:43;;;;;;;64.97;24.32;;;;;;;0.02;100.00;98466.66;4097339;86;28477;-84
2021/12/11 07:12:48;;;;;;;70.30;25.62;;;;;;;0.11;100.00;98489.39;4136076;86;28476;-82
2021/12/11 07:18:51;;;;;;;60.90;23.80;;;;;;;0.08;100.00;98506.42;4132868;86;28499;-83
2021/12/11 07:25:00;;;;;;;60.65;22.10;;;;;;;0.13;100.00;98515.14;4107460;86;28452;-85
2021/12/11 07:31:02;;;;;;;59.27;23.42;;;;;;;0.12;100.00;98513.50;4145547;84;28487;-86
2021/12/11 07:37:04;;;;;;;56.15;20.92;;;;;;;0.12;100.00;98507.73;4084741;86;28562;-81
2021/12/11 07:43:10;;;;;;;56.37;20.27;;;;;;;0.13;100.00;98513.34;4081881;86;28522;-78
2021/12/11 07:49:15;;;;;;;39.90;15.80;;;;;;;0.13;100.00;98519.11;4121453;86;28562;-84
2021/12/11 07:55:18;;;;;;;55.67;23.10;;;;;;;0.13;100.00;98550.83;4050904;86;28573;-85
2021/12/11 08:01:20;;;;;;;53.73;20.35;;;;;;;0.20;100.00;98550.47;4044995;86;28567;-83
2021/12/11 08:07:22;;;;;;;56.83;21.85;;;;;;;0.43;100.00;98572.63;4018268;88;28585;-87
2021/12/11 08:13:33;;;;;;;51.42;21.00;;;;;;;0.49;100.00;98600.52;4050183;87;28532;-81
2021/12/11 08:25:58;;;;;;;53.90;21.33;;;;;;;0.72;100.00;98600.16;3843277;90;28534;-81
2021/12/11 08:31:59;;;;;;;53.40;18.80;;;;;;;0.86;100.00;98606.50;3844391;92;28565;-75
2021/12/11 08:38:06;;;;;;;47.53;19.55;;;;;;;1.02;100.00;98620.93;3848045;91;28557;-75
2021/12/11 08:44:13;;;;;;;46.00;18.62;;;;;;;1.04;100.00;98630.84;3842400;92;28683;-75
2021/12/11 08:50:18;;;;;;;46.23;20.00;;;;;;;1.13;100.00;98658.05;3846068;91;28588;-74
2021/12/11 08:56:20;;;;;;;45.73;19.10;;;;;;;1.13;100.00;98666.52;3852486;91;28554;-75
2021/12/11 09:02:28;;;;;;;52.03;20.40;;;;;;;1.14;100.00;98673.45;3904534;90;28600;-76
2021/12/11 09:08:44;;;;;;;49.10;19.87;;;;;;;1.20;100.00;98688.64;3916987;89;28534;-76
2021/12/11 09:15:01;;;;;;;;;;;;;;;1.43;100.00;98697.04;3796574;92;28529;-77
2021/12/11 09:21:13;;;;;;;48.23;19.70;;;;;;;1.41;100.00;98701.19;3849647;90;20330;-77
2021/12/11 09:27:29;;;;;;;49.55;20.52;;;;;;;1.52;100.00;98717.97;3889952;90;28491;-77
2021/12/11 09:33:36;;;;;;;43.30;18.15;;;;;;;1.45;100.00;98728.14;3883059;90;28611;-76
2021/12/11 09:39:58;;;;;;;43.52;18.82;;;;;;;1.43;100.00;98732.28;3886609;90;28492;-76
2021/12/11 09:46:02;;;;;;;46.88;18.32;;;;;;;1.58;100.00;98736.30;3892321;90;28505;-75
2021/12/11 09:52:23;;;;;;;53.42;21.82;;;;;;;1.78;100.00;98745.05;3897687;90;28538;-78
2021/12/11 09:58:18;;;;;;;47.38;19.32;;;;;;;1.81;100.00;98737.56;3890904;90;28600;-77
2021/12/11 10:04:29;;;;;;;41.23;15.63;;;;;;;1.83;100.00;98745.84;3907100;90;28569;-77
2021/12/11 10:10:28;;;;;;;49.05;20.50;;;;;;;1.46;100.00;98760.26;3899797;89;28504;-78
2021/12/11 10:16:41;;;;;;;52.67;20.50;;;;;;;1.59;100.00;98756.48;3900720;90;28559;-77
2021/12/11 10:22:45;;;;;;;58.28;22.40;;;;;;;1.92;100.00;98771.27;3878596;91;28574;-75
2021/12/11 10:28:51;;;;;;;59.15;21.77;;;;;;;1.91;100.00;98771.75;3920679;90;28487;-76
2021/12/11 10:34:58;;;;;;;57.73;21.95;;;;;;;1.97;100.00;98778.67;3902869;90;28549;-77
2021/12/11 10:41:03;;;;;;;54.95;21.80;;;;;;;1.99;100.00;98782.80;3931458;89;28501;-77
2021/12/11 10:47:13;;;;;;;52.30;22.27;;;;;;;1.81;100.00;98793.23;3868598;90;28534;-77
2021/12/11 10:53:20;;;;;;;59.38;22.77;;;;;;;1.86;100.00;98788.72;3968416;88;28517;-77
2021/12/11 10:59:29;;;;;;;52.75;21.73;;;;;;;2.02;100.00;98777.61;3966984;88;28570;-78
2021/12/11 11:05:31;;;;;;;45.60;19.12;;;;;;;2.04;100.00;98789.69;3957900;88;28555;-77
2021/12/11 11:11:35;;;;;;;45.20;18.62;;;;;;;1.31;100.00;98798.13;3974256;88;28539;-79
2021/12/11 11:17:36;;;;;;;45.52;19.90;;;;;;;1.92;100.00;98795.13;3965641;88;28566;-77
2021/12/11 11:23:40;;;;;;;46.48;19.42;;;;;;;1.87;100.00;98800.12;3948676;88;28570;-76
2021/12/11 11:29:44;;;;;;;48.63;21.20;;;;;;;2.03;100.00;98812.41;3933408;89;28538;-75
2021/12/11 11:35:47;;;;;;;48.40;21.02;;;;;;;2.00;100.00;98817.59;3926282;89;28545;-76
2021/12/11 11:41:55;;;;;;;45.00;21.27;;;;;;;1.84;100.00;98833.64;3929148;89;28493;-75
2021/12/11 11:47:56;;;;;;;43.05;19.35;;;;;;;1.82;100.00;98831.16;3939608;89;28563;-76
2021/12/11 11:53:59;;;;;;;46.80;20.40;;;;;;;1.89;100.00;98833.94;3922300;89;28502;-75
2021/12/11 12:00:09;;;;;;;51.00;21.35;;;;;;;1.89;100.00;98851.17;3926293;89;28547;-76
2021/12/11 12:06:23;;;;;;;46.58;20.70;;;;;;;1.93;100.00;98866.55;3930593;89;28571;-77
2021/12/11 12:12:22;;;;;;;47.98;19.73;;;;;;;1.93;100.00;98869.20;3925249;89;28557;-78
2021/12/11 12:18:27;;;;;;;44.73;20.25;;;;;;;1.96;100.00;98860.04;3927489;89;28517;-79
2021/12/11 12:24:53;;;;;;;46.00;20.70;;;;;;;1.98;100.00;98857.22;3929697;89;28573;-76
2021/12/11 12:31:06;;;;;;;45.35;21.02;;;;;;;2.07;100.00;98863.58;3980408;88;28553;-75
2021/12/11 12:37:08;;;;;;;43.80;21.82;;;;;;;2.16;100.00;98865.67;3980042;87;28979;-77
2021/12/11 12:43:21;;;;;;;54.67;22.22;;;;;;;2.03;100.00;98870.27;3973362;88;28544;-75
2021/12/11 12:49:20;;;;;;;52.30;22.00;;;;;;;1.94;100.00;98870.84;4016134;87;28550;-75
2021/12/11 12:55:36;;;;;;;49.67;21.07;;;;;;;1.98;100.00;98869.16;4012051;87;28545;-74
2021/12/11 13:01:49;;;;;;;;;;;;;;;1.95;100.00;98867.19;3987565;87;28490;-74
2021/12/11 13:07:55;;;;;;;48.90;21.73;;;;;;;1.95;100.00;98872.98;3917073;89;20193;-77
2021/12/11 13:14:00;;;;;;;43.55;20.32;;;;;;;1.89;100.00;98880.34;3866995;90;28583;-78
2021/12/11 13:20:07;;;;;;;47.27;21.37;;;;;;;1.94;100.00;98878.80;3871320;90;28532;-76
2021/12/11 13:26:11;;;;;;;45.88;20.55;;;;;;;1.78;100.00;98878.92;3875265;89;28616;-77
2021/12/11 13:32:17;;;;;;;49.88;21.60;;;;;;;1.85;100.00;98867.94;3871600;90;28523;-77
2021/12/11 13:38:23;;;;;;;46.63;21.75;;;;;;;1.79;100.00;98874.78;3872851;90;28555;-76
2021/12/11 13:44:25;;;;;;;49.67;21.40;;;;;;;1.73;100.00;98881.30;3884021;90;28526;-76
2021/12/11 13:50:31;;;;;;;54.48;23.70;;;;;;;1.79;100.00;98898.64;3847059;91;28632;-76
2021/12/11 13:56:40;;;;;;;53.23;22.80;;;;;;;1.72;100.00;98910.10;3838599;91;28532;-77
2021/12/11 14:02:42;;;;;;;50.25;22.40;;;;;;;1.72;100.00;98906.97;3828858;91;28559;-76
2021/12/11 14:08:44;;;;;;;51.58;21.45;;;;;;;1.59;100.00;98922.63;3829484;91;28466;-77
2021/12/11 14:14:45;;;;;;;48.28;20.97;;;;;;;1.55;100.00;98943.36;3871470;91;28612;-78
2021/12/11 14:20:48;;;;;;;54.53;22.98;;;;;;;1.56;100.00;98954.28;3824873;91;28503;-74
2021/12/11 14:26:49;;;;;;;54.10;23.65;;;;;;;1.58;100.00;98961.55;3847643;89;28588;-77
2021/12/11 14:32:54;;;;;;;49.63;22.95;;;;;;;1.54;100.00;98964.23;3906400;89;28516;-76
2021/12/11 14:39:04;;;;;;;50.52;21.93;;;;;;;1.52;100.00;98976.84;3903783;89;28536;-75
2021/12/11 14:45:06;;;;;;;49.03;21.33;;;;;;;1.45;100.00;98994.42;3903827;89;28524;-75
2021/12/11 14:51:13;;;;;;;49.00;22.07;;;;;;;1.44;100.00;99004.17;3867131;90;28543;-76
2021/12/11 14:57:16;;;;;;;51.45;23.42;;;;;;;1.45;100.00;99011.64;3897622;91;28520;-76
2021/12/11 15:03:17;;;;;;;52.93;23.25;;;;;;;1.38;100.00;99018.13;3905072;90;28485;-75
2021/12/11 15:09:20;;;;;;;51.08;22.67;;;;;;;1.37;100.00;99012.52;3903728;90;28547;-74
2021/12/11 15:15:21;;;;;;;49.13;22.30;;;;;;;1.31;100.00;99037.02;3907178;89;28564;-77
2021/12/11 15:21:26;;;;;;;50.30;23.12;;;;;;;1.34;100.00;99043.30;3905681;89;28460;-76
2021/12/11 15:27:29;;;;;;;54.80;22.67;;;;;;;1.32;100.00;99052.76;3903759;89;28491;-79
2021/12/11 15:33:32;;;;;;;52.17;22.32;;;;;;;1.28;100.00;99059.38;3914821;89;28543;-77
2021/12/11 15:39:44;;;;;;;56.00;23.45;;;;;;;1.29;100.00;99058.89;3926096;89;28562;-77
2021/12/11 15:45:51;;;;;;;50.52;22.67;;;;;;;1.31;100.00;99064.84;3911269;89;28551;-76
2021/12/11 15:51:53;;;;;;;66.30;27.95;;;;;;;1.35;100.00;99070.11;3923085;89;28475;-79
2021/12/11 15:57:57;;;;;;;70.50;26.57;;;;;;;1.32;100.00;99070.46;3988844;88;28532;-76
2021/12/11 16:04:07;;;;;;;65.83;27.75;;;;;;;1.42;100.00;99068.95;3995193;87;28523;-77
2021/12/11 16:10:11;;;;;;;65.30;27.85;;;;;;;1.29;100.00;99085.38;3995962;89;28535;-75
2021/12/11 16:16:14;;;;;;;65.67;26.27;;;;;;;1.26;100.00;99098.45;3997725;89;28546;-77
2021/12/11 16:22:22;;;;;;;66.82;28.67;;;;;;;1.17;100.00;99118.00;3990301;87;28522;-78
2021/12/11 16:28:24;;;;;;;68.40;28.42;;;;;;;1.21;100.00;99132.07;3989941;88;28529;-77
2021/12/11 16:34:25;;;;;;;65.67;27.85;;;;;;;1.17;100.00;99129.44;3975450;87;28496;-77
2021/12/11 16:40:37;;;;;;;64.85;27.05;;;;;;;1.25;100.00;99152.44;3907082;90;28550;-77
2021/12/11 16:46:44;;;;;;;64.67;26.87;;;;;;;1.28;100.00;99157.91;3897424;90;28584;-77
2021/12/11 16:52:46;;;;;;;64.12;27.27;;;;;;;1.27;100.00;99162.87;3918665;90;28512;-77
2021/12/11 16:58:48;;;;;;;65.30;26.73;;;;;;;1.17;100.00;99177.59;3927788;90;28488;-78
2021/12/11 17:04:50;;;;;;;70.05;28.23;;;;;;;1.28;100.00;99179.91;3928700;89;28569;-79
2021/12/11 17:10:56;;;;;;;65.15;28.20;;;;;;;1.34;100.00;99188.52;3921570;90;28526;-77
2021/12/11 17:16:57;;;;;;;;;;;;;;;1.27;100.00;99195.47;3942939;90;28569;-78
2021/12/11 17:22:59;;;;;;;61.95;26.17;;;;;;;1.24;100.00;99197.95;3940205;89;20518;-78
2021/12/11 17:29:06;;;;;;;65.35;27.60;;;;;;;1.16;100.00;99200.63;3946180;89;28532;-75
2021/12/11 17:35:10;;;;;;;70.30;29.07;;;;;;;1.18;100.00;99208.38;3931703;89;28593;-77
2021/12/11 17:41:11;;;;;;;66.25;27.85;;;;;;;1.17;100.00;99224.79;3937800;89;28753;-79
2021/12/11 17:47:14;;;;;;;67.08;28.65;;;;;;;1.12;100.00;99236.36;3958766;89;28494;-77
2021/12/11 17:53:17;;;;;;;61.58;25.95;;;;;;;1.18;100.00;99248.95;3932082;90;28910;-77
2021/12/11 17:59:20;;;;;;;69.30;29.20;;;;;;;1.20;100.00;99254.91;4027841;86;28534;-78
2021/12/11 18:05:30;;;;;;;67.37;29.30;;;;;;;1.27;100.00;99255.07;4022823;86;28509;-78
2021/12/11 18:11:46;;;;;;;64.32;27.60;;;;;;;1.25;100.00;99272.95;3986899;87;28560;-79
2021/12/11 18:18:04;;;;;;;66.82;28.45;;;;;;;1.13;100.00;99279.06;3978715;87;28481;-77
2021/12/11 18:24:05;;;;;;;63.33;28.47;;;;;;;1.14;100.00;99290.50;3986900;88;28528;-76
2021/12/11 18:30:12;;;;;;;59.18;26.02;;;;;;;1.22;100.00;99291.84;3957785;88;28540;-76
2021/12/11 18:36:19;;;;;;;62.10;26.87;;;;;;;1.19;100.00;99290.82;3952185;89;28506;-77
2021/12/11 18:42:25;;;;;;;64.27;28.00;;;;;;;1.20;100.00;99285.88;3951078;89;28509;-76
2021/12/11 18:48:31;;;;;;;66.42;27.05;;;;;;;1.14;100.00;99286.01;3954608;89;28545;-77
2021/12/11 18:54:36;;;;;;;64.58;26.60;;;;;;;1.10;100.00;99296.61;3947877;89;28480;-76
2021/12/11 19:01:02;;;;;;;64.47;28.27;;;;;;;1.19;100.00;99295.63;3956952;89;28533;-75
2021/12/11 19:07:08;;;;;;;67.43;26.80;;;;;;;1.17;100.00;99303.41;3942141;89;28540;-75
2021/12/11 19:13:10;;;;;;;67.67;27.55;;;;;;;1.19;100.00;99313.33;3951531;88;36158;-77
2021/12/11 19:19:14;;;;;;;77.78;31.15;;;;;;;1.19;100.00;99329.22;3951769;89;28518;-75
2021/12/11 19:25:18;;;;;;;77.32;32.38;;;;;;;1.15;100.00;99339.83;3942941;89;28559;-74
2021/12/11 19:31:26;;;;;;;74.72;29.37;;;;;;;1.16;100.00;99359.53;3983837;88;28532;-74
2021/12/11 19:37:27;;;;;;;71.07;29.65;;;;;;;1.10;100.00;99355.72;4011892;87;28537;-75
2021/12/11 19:43:30;;;;;;;78.52;32.33;;;;;;;1.10;100.00;99378.23;4012682;87;28538;-75
2021/12/11 19:49:33;;;;;;;78.25;31.85;;;;;;;1.12;100.00;99378.05;4034003;87;28977;-79
2021/12/11 19:55:36;;;;;;;78.40;30.82;;;;;;;1.17;100.00;99393.45;3925025;89;28522;-78
2021/12/11 20:01:42;;;;;;;77.32;30.75;;;;;;;1.23;100.00;99398.13;3929533;89;28579;-78
2021/12/11 20:07:46;;;;;;;77.58;32.10;;;;;;;1.08;100.00;99415.94;3940759;89;28593;-77
2021/12/11 20:13:48;;;;;;;84.32;32.88;;;;;;;1.10;100.00;99417.95;3958968;89;28548;-79
2021/12/11 20:19:50;;;;;;;81.00;35.73;;;;;;;1.19;100.00;99428.07;3965905;89;28526;-79
2021/12/11 20:25:52;;;;;;;82.33;35.70;;;;;;;1.18;100.00;99425.57;3948038;89;28493;-77
2021/12/11 20:31:59;;;;;;;79.47;34.55;;;;;;;1.16;100.00;99424.43;3913376;89;28544;-79
2021/12/11 20:38:03;;;;;;;77.97;35.75;;;;;;;1.10;100.00;99420.60;3921253;90;28491;-79
2021/12/11 20:44:09;;;;;;;78.57;35.23;;;;;;;1.17;100.00;99433.19;3934321;89;28543;-81
2021/12/11 20:50:16;;;;;;;88.33;35.85;;;;;;;1.07;100.00;99440.77;3956695;88;28529;-80
2021/12/11 20:56:22;;;;;;;88.55;38.75;;;;;;;1.15;100.00;99451.06;3918725;89;28535;-78
2021/12/11 21:02:28;;;;;;;97.27;42.27;;;;;;;1.24;100.00;99463.36;3884516;90;28487;-78
2021/12/11 21:08:31;;;;;;;101.70;43.23;;;;;;;1.17;100.00;99459.67;3894702;90;28484;-80
2021/12/11 21:14:33;;;;;;;101.50;44.67;;;;;;;1.15;100.00;99466.95;3899236;91;28539;-81
2021/12/11 21:20:43;;;;;;;97.27;43.00;;;;;;;1.19;100.00;99489.00;3875577;90;28491;-81
2021/12/11 21:26:45;;;;;;;97.95;43.65;;;;;;;1.17;100.00;99505.55;3904965;91;28533;-80
2021/12/11 21:32:51;;;;;;;100.47;45.20;;;;;;;1.28;100.00;99512.87;3957352;88;28527;-73
2021/12/11 21:39:06;;;;;;;111.85;49.95;;;;;;;1.30;100.00;99514.87;4023668;87;28597;-76
2021/12/11 21:45:15;;;;;;;120.30;53.98;;;;;;;1.21;100.00;99531.23;4025235;87;28575;-74
2021/12/11 21:51:22;;;;;;;112.97;51.35;;;;;;;1.17;100.00;99547.92;4007270;88;28482;-75
2021/12/11 21:57:27;;;;;;;116.15;50.12;;;;;;;1.08;100.00;99547.03;3921696;89;28489;-73
2021/12/11 22:03:34;;;;;;;113.27;51.00;;;;;;;1.00;100.00;99543.52;3878675;91;28552;-76
2021/12/11 22:09:39;;;;;;;110.90;50.88;;;;;;;1.16;100.00;99539.65;3915909;89;28490;-74
2021/12/11 22:15:53;;;;;;;108.12;50.55;;;;;;;1.15;100.00;99541.12;3963927;89;28494;-75
2021/12/11 22:21:55;;;;;;;112.88;50.05;;;;;;;1.13;100.00;99549.72;3900487;90;28519;-76
2021/12/11 22:27:57;;;;;;;111.42;50.88;;;;;;;1.19;100.00;99546.42;3956096;89;28537;-75
2021/12/11 22:34:00;;;;;;;118.35;51.80;;;;;;;1.16;100.00;99550.72;3928190;89;28485;-76
2021/12/11 22:40:07;;;;;;;128.55;56.40;;;;;;;1.18;100.00;99556.69;4011839;87;28503;-75
2021/12/11 22:46:12;;;;;;;124.40;55.38;;;;;;;1.29;100.00;99556.92;4002778;87;28514;-75
2021/12/11 22:52:15;;;;;;;118.93;51.88;;;;;;;1.16;100.00;99561.31;3936735;89;28479;-74
2021/12/11 22:58:24;;;;;;;116.10;50.78;;;;;;;1.07;100.00;99561.77;3960133;89;28532;-74
2021/12/11 23:04:31;;;;;;;118.65;53.05;;;;;;;1.01;100.00;99549.14;3930712;90;28500;-72
2021/12/11 23:10:40;;;;;;;127.20;55.35;;;;;;;1.08;100.00;99543.06;4033737;87;28465;-72
2021/12/11 23:16:50;;;;;;;102.67;47.20;;;;;;;0.96;100.00;99546.48;4012460;87;28525;-76
2021/12/11 23:23:01;;;;;;;105.72;44.88;;;;;;;0.86;100.00;99531.19;4007866;87;28532;-76
2021/12/11 23:29:25;;;;;;;109.40;47.48;;;;;;;0.94;100.00;99533.05;4011113;87;28540;-75
2021/12/11 23:35:44;;;;;;;105.80;47.03;;;;;;;0.91;100.00;99538.16;3942738;87;28622;-75
2021/12/11 23:41:52;;;;;;;92.30;39.05;;;;;;;0.88;100.00;99537.64;3923985;89;28561;-70
2021/12/11 23:47:59;;;;;;;71.85;34.45;;;;;;;0.67;100.00;99548.93;3851116;91;28550;-71
2021/12/11 23:54:07;;;;;;;64.22;29.75;;;;;;;0.82;100.00;99556.30;3846475;91;28626;-71
